Time,TemperatureF,DewpointF,PressureIn,WindDirection,WindDirectionDegrees,WindSpeedMPH,WindSpeedGustMPH,Humidity,HourlyPrecipIn,Conditions,Clouds,dailyrainin,SolarRadiationWatts/m^2,SoftwareType,DateUTC
2013-02-22 00:01:00,29.0,19.0,-100.00,NNW,333,6.0,17.0,67,0.00,,,0.00,0.000000,,2013-02-22 08:01:00,
2013-02-22 00:52:00,28.0,17.0,-100.00,NNW,337,5.0,22.0,63,0.00,,,0.00,0.000000,,2013-02-22 08:52:00,
2013-02-22 01:03:00,28.0,17.0,-100.00,NNW,337,5.0,22.0,63,0.00,,,0.00,0.000000,,2013-02-22 09:03:00,
2013-02-22 01:52:00,28.0,19.0,-100.00,NNW,336,6.0,21.0,68,0.00,,,0.00,0.000000,,2013-02-22 09:52:00,
2013-02-22 02:01:00,28.0,19.0,-100.00,NNW,336,6.0,21.0,68,0.00,,,0.00,0.000000,,2013-02-22 10:01:00,
2013-02-22 02:52:00,28.0,20.0,-100.00,NNW,336,6.0,19.0,71,0.00,,,0.00,0.000000,,2013-02-22 10:52:00,
2013-02-22 03:01:00,28.0,20.0,-100.00,NNW,336,6.0,19.0,71,0.00,,,0.00,0.000000,,2013-02-22 11:01:00,
2013-02-22 03:11:00,28.0,20.0,-100.00,NNW,336,6.0,19.0,71,0.00,,,0.00,0.000000,,2013-02-22 11:11:00,
2013-02-22 03:21:00,28.0,20.0,-100.00,NNW,336,6.0,19.0,71,0.00,,,0.00,0.000000,,2013-02-22 11:21:00,
2013-02-22 03:31:00,28.0,20.0,-100.00,NNW,336,6.0,19.0,71,0.00,,,0.00,0.000000,,2013-02-22 11:31:00,
2013-02-22 03:52:00,28.0,20.0,-100.00,NNW,336,6.0,17.0,72,0.00,,,0.00,0.000000,,2013-02-22 11:52:00,
2013-02-22 04:02:00,28.0,20.0,-100.00,NNW,336,6.0,17.0,72,0.00,,,0.00,0.000000,,2013-02-22 12:02:00,
2013-02-22 04:11:00,28.0,20.0,-100.00,NNW,336,6.0,17.0,72,0.00,,,0.00,0.000000,,2013-02-22 12:11:00,
2013-02-22 04:21:00,28.0,20.0,-100.00,NNW,336,6.0,17.0,72,0.00,,,0.00,0.000000,,2013-02-22 12:21:00,
2013-02-22 04:32:00,28.0,20.0,-100.00,NNW,336,6.0,17.0,72,0.00,,,0.00,0.000000,,2013-02-22 12:32:00,
2013-02-22 04:52:00,28.0,20.0,-100.00,NNW,336,3.0,14.0,71,0.00,,,0.00,0.000000,,2013-02-22 12:52:00,
2013-02-22 05:01:00,28.0,20.0,-100.00,NNW,336,3.0,14.0,71,0.00,,,0.00,0.000000,,2013-02-22 13:01:00,
2013-02-22 05:11:00,28.0,20.0,-100.00,NNW,336,3.0,14.0,71,0.00,,,0.00,0.000000,,2013-02-22 13:11:00,
2013-02-22 05:22:00,28.0,20.0,-100.00,NNW,336,3.0,14.0,71,0.00,,,0.00,0.000000,,2013-02-22 13:22:00,
2013-02-22 05:31:00,28.0,20.0,-100.00,NNW,336,3.0,14.0,71,0.00,,,0.00,0.000000,,2013-02-22 13:31:00,
2013-02-22 05:52:00,28.0,20.0,-100.00,NNW,335,5.0,14.0,72,0.00,,,-99.99,0.000000,,2013-02-22 13:52:00,
2013-02-22 06:01:00,28.0,20.0,-100.00,NNW,335,5.0,14.0,72,0.00,,,-99.99,0.000000,,2013-02-22 14:01:00,
2013-02-22 06:11:00,28.0,20.0,-100.00,NNW,335,5.0,14.0,72,0.00,,,-99.99,0.000000,,2013-02-22 14:11:00,
2013-02-22 06:21:00,28.0,20.0,-100.00,NNW,335,5.0,14.0,72,0.00,,,-99.99,0.000000,,2013-02-22 14:21:00,
2013-02-22 06:31:00,28.0,20.0,-100.00,NNW,335,5.0,14.0,72,0.00,,,-99.99,0.000000,,2013-02-22 14:31:00,
2013-02-22 06:53:00,29.0,22.0,-100.00,NNW,335,3.0,12.0,75,0.00,,,0.00,0.000000,,2013-02-22 14:53:00,
2013-02-22 07:01:00,29.0,22.0,-100.00,NNW,335,3.0,12.0,75,0.00,,,0.00,0.000000,,2013-02-22 15:01:00,
2013-02-22 07:11:00,29.0,22.0,-100.00,NNW,335,3.0,12.0,75,0.00,,,0.00,0.000000,,2013-02-22 15:11:00,
2013-02-22 07:21:00,29.0,22.0,-100.00,NNW,335,3.0,12.0,75,0.00,,,0.00,0.000000,,2013-02-22 15:21:00,
2013-02-22 07:31:00,29.0,22.0,-100.00,NNW,335,3.0,12.0,75,0.00,,,0.00,0.000000,,2013-02-22 15:31:00,
2013-02-22 07:52:00,29.0,22.0,-100.00,NNW,336,3.0,12.0,76,0.00,,,0.00,3.000000,,2013-02-22 15:52:00,
2013-02-22 08:01:00,29.0,22.0,-100.00,NNW,336,3.0,12.0,76,0.00,,,0.00,3.000000,,2013-02-22 16:01:00,
2013-02-22 08:11:00,29.0,22.0,-100.00,NNW,336,3.0,12.0,76,0.00,,,0.00,3.000000,,2013-02-22 16:11:00,
2013-02-22 08:21:00,29.0,22.0,-100.00,NNW,336,3.0,12.0,76,0.00,,,0.00,3.000000,,2013-02-22 16:21:00,
2013-02-22 08:31:00,29.0,22.0,-100.00,NNW,336,3.0,12.0,76,0.00,,,0.00,3.000000,,2013-02-22 16:31:00,
2013-02-22 08:52:00,30.0,23.0,-100.00,NNW,335,3.0,9.0,74,0.00,,,0.00,46.000000,,2013-02-22 16:52:00,
2013-02-22 09:01:00,30.0,23.0,-100.00,NNW,335,3.0,9.0,74,0.00,,,0.00,46.000000,,2013-02-22 17:01:00,
2013-02-22 09:11:00,30.0,23.0,-100.00,NNW,335,3.0,9.0,74,0.00,,,0.00,46.000000,,2013-02-22 17:11:00,
2013-02-22 09:21:00,30.0,23.0,-100.00,NNW,335,3.0,9.0,74,0.00,,,0.00,46.000000,,2013-02-22 17:21:00,
2013-02-22 09:31:00,30.0,23.0,-100.00,NNW,335,3.0,9.0,74,0.00,,,0.00,46.000000,,2013-02-22 17:31:00,
2013-02-22 09:52:00,30.0,26.0,-100.00,NNW,336,3.0,6.0,84,0.00,,,0.00,110.000000,,2013-02-22 17:52:00,
2013-02-22 10:01:00,30.0,26.0,-100.00,NNW,336,3.0,6.0,84,0.00,,,0.00,110.000000,,2013-02-22 18:01:00,
2013-02-22 10:12:00,30.0,26.0,-100.00,NNW,336,3.0,6.0,84,0.00,,,0.00,110.000000,,2013-02-22 18:12:00,
2013-02-22 10:22:00,30.0,26.0,-100.00,NNW,336,3.0,6.0,84,0.00,,,0.00,110.000000,,2013-02-22 18:22:00,
2013-02-22 10:31:00,30.0,26.0,-100.00,NNW,336,3.0,6.0,84,0.00,,,0.00,110.000000,,2013-02-22 18:31:00,
2013-02-22 10:52:00,30.0,27.0,-100.00,NNW,336,2.0,9.0,88,0.00,,,0.00,101.000000,,2013-02-22 18:52:00,
2013-02-22 11:01:00,30.0,27.0,-100.00,NNW,336,2.0,9.0,88,0.00,,,0.00,101.000000,,2013-02-22 19:01:00,
2013-02-22 11:11:00,30.0,27.0,-100.00,NNW,336,2.0,9.0,88,0.00,,,0.00,101.000000,,2013-02-22 19:11:00,
2013-02-22 11:21:00,30.0,27.0,-100.00,NNW,336,2.0,9.0,88,0.00,,,0.00,101.000000,,2013-02-22 19:21:00,
2013-02-22 11:31:00,30.0,27.0,-100.00,NNW,336,2.0,9.0,88,0.00,,,0.00,101.000000,,2013-02-22 19:31:00,
2013-02-22 11:52:00,33.0,29.0,-100.00,NNW,336,3.0,13.0,84,0.03,,,0.03,115.000000,,2013-02-22 19:52:00,
2013-02-22 12:01:00,33.0,29.0,-100.00,NNW,336,3.0,13.0,84,0.03,,,0.03,115.000000,,2013-02-22 20:01:00,
2013-02-22 12:11:00,33.0,29.0,-100.00,NNW,336,3.0,13.0,84,0.03,,,0.03,115.000000,,2013-02-22 20:11:00,
2013-02-22 12:21:00,33.0,29.0,-100.00,NNW,336,3.0,13.0,84,0.03,,,0.03,115.000000,,2013-02-22 20:21:00,
2013-02-22 12:31:00,33.0,29.0,-100.00,NNW,336,3.0,13.0,84,0.03,,,0.03,115.000000,,2013-02-22 20:31:00,
2013-02-22 12:52:00,34.0,29.0,-100.00,NNW,336,4.0,14.0,83,0.04,,,0.07,206.000000,,2013-02-22 20:52:00,
2013-02-22 13:01:00,34.0,29.0,-100.00,NNW,336,4.0,14.0,83,0.04,,,0.07,206.000000,,2013-02-22 21:01:00,
2013-02-22 13:11:00,34.0,29.0,-100.00,NNW,336,4.0,14.0,83,0.04,,,0.07,206.000000,,2013-02-22 21:11:00,
2013-02-22 13:21:00,34.0,29.0,-100.00,NNW,336,4.0,14.0,83,0.04,,,0.07,206.000000,,2013-02-22 21:21:00,
2013-02-22 13:31:00,34.0,29.0,-100.00,NNW,336,4.0,14.0,83,0.04,,,0.07,206.000000,,2013-02-22 21:31:00,
2013-02-22 13:52:00,36.0,30.0,-100.00,NNW,335,4.0,23.0,78,0.01,,,0.08,266.000000,,2013-02-22 21:52:00,
2013-02-22 14:01:00,36.0,30.0,-100.00,NNW,335,4.0,23.0,78,0.01,,,0.08,266.000000,,2013-02-22 22:01:00,
2013-02-22 14:11:00,36.0,30.0,-100.00,NNW,335,4.0,23.0,78,0.01,,,0.08,266.000000,,2013-02-22 22:11:00,
2013-02-22 14:21:00,36.0,30.0,-100.00,NNW,335,4.0,23.0,78,0.01,,,0.08,266.000000,,2013-02-22 22:21:00,
2013-02-22 14:31:00,36.0,30.0,-100.00,NNW,335,4.0,23.0,78,0.01,,,0.08,266.000000,,2013-02-22 22:31:00,
2013-02-22 14:52:00,34.0,29.0,-100.00,NNW,336,4.0,17.0,82,0.01,,,0.09,229.000000,,2013-02-22 22:52:00,
2013-02-22 15:01:00,34.0,29.0,-100.00,NNW,336,4.0,17.0,82,0.01,,,0.09,229.000000,,2013-02-22 23:01:00,
2013-02-22 15:11:00,34.0,29.0,-100.00,NNW,336,4.0,17.0,82,0.01,,,0.09,229.000000,,2013-02-22 23:11:00,
2013-02-22 15:21:00,34.0,29.0,-100.00,NNW,336,4.0,17.0,82,0.01,,,0.09,229.000000,,2013-02-22 23:21:00,
2013-02-22 15:31:00,34.0,29.0,-100.00,NNW,336,4.0,17.0,82,0.01,,,0.09,229.000000,,2013-02-22 23:31:00,
2013-02-22 15:52:00,34.0,28.0,-100.00,NNW,334,8.0,25.0,78,0.00,,,0.09,177.000000,,2013-02-22 23:52:00,
2013-02-22 16:01:00,34.0,28.0,-100.00,NNW,334,8.0,25.0,78,0.00,,,0.09,177.000000,,2013-02-23 00:01:00,
2013-02-22 16:11:00,34.0,28.0,-100.00,NNW,334,8.0,25.0,78,0.00,,,0.09,177.000000,,2013-02-23 00:11:00,
2013-02-22 16:21:00,34.0,28.0,-100.00,NNW,334,8.0,25.0,78,0.00,,,0.09,177.000000,,2013-02-23 00:21:00,
2013-02-22 16:31:00,34.0,28.0,-100.00,NNW,334,8.0,25.0,78,0.00,,,0.09,177.000000,,2013-02-23 00:31:00,
2013-02-22 16:52:00,32.0,27.0,-100.00,NNW,333,8.0,38.0,81,0.00,,,0.09,52.000000,,2013-02-23 00:52:00,
2013-02-22 17:01:00,32.0,27.0,-100.00,NNW,333,8.0,38.0,81,0.00,,,0.09,52.000000,,2013-02-23 01:01:00,
2013-02-22 17:11:00,32.0,27.0,-100.00,NNW,333,8.0,38.0,81,0.00,,,0.09,52.000000,,2013-02-23 01:11:00,
2013-02-22 17:21:00,32.0,27.0,-100.00,NNW,333,8.0,38.0,81,0.00,,,0.09,52.000000,,2013-02-23 01:21:00,
2013-02-22 17:31:00,32.0,27.0,-100.00,NNW,333,8.0,38.0,81,0.00,,,0.09,52.000000,,2013-02-23 01:31:00,
2013-02-22 17:52:00,30.0,22.0,-100.00,NNW,333,9.0,34.0,72,0.00,,,0.09,24.000000,,2013-02-23 01:52:00,
2013-02-22 18:01:00,30.0,22.0,-100.00,NNW,333,9.0,34.0,72,0.00,,,0.09,24.000000,,2013-02-23 02:01:00,
2013-02-22 18:52:00,28.0,20.0,-100.00,NNW,333,9.0,32.0,70,0.00,,,0.09,1.000000,,2013-02-23 02:52:00,
2013-02-22 19:01:00,28.0,20.0,-100.00,NNW,333,9.0,32.0,70,0.00,,,0.09,1.000000,,2013-02-23 03:01:00,
2013-02-22 19:52:00,26.0,22.0,-100.00,NNW,336,5.0,35.0,83,0.00,,,-99.99,0.000000,,2013-02-23 03:52:00,
2013-02-22 20:01:00,26.0,22.0,-100.00,NNW,336,5.0,35.0,83,0.00,,,-99.99,0.000000,,2013-02-23 04:01:00,
2013-02-22 20:11:00,26.0,22.0,-100.00,NNW,336,5.0,35.0,83,0.00,,,-99.99,0.000000,,2013-02-23 04:11:00,
2013-02-22 20:21:00,26.0,22.0,-100.00,NNW,336,5.0,35.0,83,0.00,,,-99.99,0.000000,,2013-02-23 04:21:00,
2013-02-22 20:31:00,26.0,22.0,-100.00,NNW,336,5.0,35.0,83,0.00,,,-99.99,0.000000,,2013-02-23 04:31:00,
2013-02-22 20:52:00,24.0,16.0,-100.00,NNW,338,8.0,31.0,71,0.00,,,0.09,0.000000,,2013-02-23 04:52:00,
2013-02-22 21:02:00,24.0,16.0,-100.00,NNW,338,8.0,31.0,71,0.00,,,0.09,0.000000,,2013-02-23 05:02:00,
2013-02-22 21:52:00,23.0,17.0,-100.00,NNW,336,8.0,43.0,78,-99.99,,,0.09,0.000000,,2013-02-23 05:52:00,
2013-02-22 22:01:00,23.0,17.0,-100.00,NNW,336,8.0,43.0,78,-99.99,,,0.09,0.000000,,2013-02-23 06:01:00,
2013-02-22 22:52:00,23.0,16.0,-100.00,NNW,336,8.0,38.0,74,-99.99,,,0.09,0.000000,,2013-02-23 06:52:00,
2013-02-22 23:01:00,23.0,16.0,-100.00,NNW,336,8.0,38.0,74,-99.99,,,0.09,0.000000,,2013-02-23 07:01:00,
2013-02-22 23:52:00,23.0,14.0,-100.00,NNW,332,9.0,37.0,68,0.00,,,0.09,0.000000,,2013-02-23 07:52:00,